createdAt,value
2019-05-29T00:00:08.324Z,73.09
2019-05-29T00:02:36.786Z,72.14
2019-05-29T00:05:07.984Z,72.64
2019-05-29T00:07:36.836Z,74.20
2019-05-29T00:10:08.821Z,73.18
2019-05-29T00:12:37.663Z,73.33
2019-05-29T00:15:06.330Z,74.30
2019-05-29T00:17:34.708Z,73.26
2019-05-29T00:20:03.190Z,73.63
2019-05-29T00:22:33.095Z,75.21
2019-05-29T00:25:03.025Z,75.25
2019-05-29T00:27:31.482Z,74.71
2019-05-29T00:29:59.898Z,76.50
2019-05-29T00:32:28.286Z,76.04
2019-05-29T00:34:56.729Z,75.73
2019-05-29T00:37:25.110Z,74.85
2019-05-29T00:39:53.517Z,74.83
2019-05-29T00:42:21.912Z,76.09
2019-05-29T00:44:50.399Z,75.65
2019-05-29T00:47:18.787Z,74.62
2019-05-29T00:49:47.558Z,74.34
2019-05-29T00:52:16.602Z,74.29
2019-05-29T00:54:45.233Z,75.17
2019-05-29T00:57:15.379Z,75.80
2019-05-29T00:59:43.723Z,77.44
2019-05-29T01:02:13.843Z,76.29
2019-05-29T01:04:42.253Z,75.58
2019-05-29T01:07:12.206Z,74.69
2019-05-29T01:09:42.464Z,74.00
2019-05-29T01:12:10.881Z,74.24
2019-05-29T01:14:49.725Z,74.55
2019-05-29T01:17:12.193Z,74.00
2019-05-29T01:19:40.930Z,72.98
2019-05-29T01:22:09.325Z,73.29
2019-05-29T01:24:37.743Z,73.64
2019-05-29T01:27:06.176Z,73.41
2019-05-29T01:29:34.580Z,72.90
2019-05-29T01:32:03.099Z,74.37
2019-05-29T01:34:31.680Z,72.89
2019-05-29T01:37:01.608Z,74.25
2019-05-29T01:39:30.009Z,74.74
2019-05-29T01:41:58.564Z,74.31
2019-05-29T01:44:27.803Z,73.83
2019-05-29T01:46:56.457Z,73.57
2019-05-29T01:49:24.877Z,73.52
2019-05-29T01:51:53.368Z,74.94
2019-05-29T01:54:21.782Z,73.10
2019-05-29T01:56:50.194Z,73.56
2019-05-29T01:59:19.690Z,73.27
2019-05-29T02:01:48.095Z,73.28
2019-05-29T02:04:17.732Z,73.15
2019-05-29T02:06:46.674Z,73.59
2019-05-29T02:09:15.910Z,74.52
2019-05-29T02:11:44.382Z,74.19
2019-05-29T02:14:12.764Z,73.59
2019-05-29T02:16:42.704Z,73.81
2019-05-29T02:19:11.107Z,74.07
2019-05-29T02:21:39.517Z,74.01
2019-05-29T02:24:08.169Z,73.16
2019-05-29T02:26:36.587Z,73.00
2019-05-29T02:29:04.993Z,72.86
2019-05-29T02:31:33.405Z,73.44
2019-05-29T02:34:01.795Z,73.60
2019-05-29T02:36:30.253Z,73.00
2019-05-29T02:38:58.806Z,73.00
2019-05-29T02:41:28.483Z,73.19
2019-05-29T02:43:57.579Z,72.90
2019-05-29T02:46:28.088Z,72.74
2019-05-29T02:48:56.471Z,73.34
2019-05-29T02:51:26.507Z,73.54
2019-05-29T02:53:55.175Z,73.21
2019-05-29T02:56:24.905Z,73.61
2019-05-29T02:58:53.567Z,74.14
2019-05-29T03:01:24.035Z,73.77
2019-05-29T03:03:52.776Z,74.02
2019-05-29T03:06:22.301Z,73.82
2019-05-29T03:08:51.870Z,73.95
2019-05-29T03:11:20.262Z,73.42
2019-05-29T03:13:48.753Z,73.48
2019-05-29T03:16:17.139Z,74.45
2019-05-29T03:18:45.545Z,74.26
2019-05-29T03:21:13.933Z,74.25
2019-05-29T03:23:42.355Z,74.63
2019-05-29T03:26:12.263Z,74.21
2019-05-29T03:28:42.217Z,73.71
2019-05-29T03:31:10.627Z,73.96
2019-05-29T03:33:47.876Z,74.37
2019-05-29T03:36:10.671Z,74.53
2019-05-29T03:38:40.730Z,73.61
2019-05-29T03:41:09.206Z,73.83
2019-05-29T03:43:38.729Z,73.59
2019-05-29T03:46:26.458Z,73.89
2019-05-29T03:48:38.932Z,74.11
2019-05-29T03:51:07.368Z,74.17
2019-05-29T03:53:38.441Z,73.57
2019-05-29T03:56:07.208Z,74.08
2019-05-29T03:58:37.512Z,73.84
2019-05-29T04:01:05.991Z,74.46
2019-05-29T04:03:35.662Z,74.32
2019-05-29T04:06:05.258Z,73.30
2019-05-29T04:08:35.694Z,73.94
2019-05-29T04:11:04.853Z,74.08
2019-05-29T04:13:34.087Z,73.04
2019-05-29T04:16:03.958Z,72.93
2019-05-29T04:18:35.929Z,73.81
2019-05-29T04:21:05.149Z,72.86
2019-05-29T04:23:38.375Z,73.79
2019-05-29T04:26:08.627Z,73.82
2019-05-29T04:28:38.889Z,73.60
2019-05-29T04:31:07.156Z,73.47
2019-05-29T04:33:38.909Z,73.09
2019-05-29T04:36:07.741Z,73.27
2019-05-29T04:38:37.822Z,72.87
2019-05-29T04:41:06.265Z,73.29
2019-05-29T04:43:35.431Z,72.76
2019-05-29T04:46:04.894Z,72.82
2019-05-29T04:48:36.139Z,72.94
2019-05-29T04:51:05.085Z,72.75
2019-05-29T04:53:34.201Z,73.03
2019-05-29T04:56:04.410Z,72.67
2019-05-29T04:58:34.856Z,72.90
2019-05-29T05:01:05.960Z,72.79
2019-05-29T05:03:35.200Z,72.61
2019-05-29T05:06:04.634Z,72.69
2019-05-29T05:08:33.350Z,72.70
2019-05-29T05:11:02.430Z,72.58
2019-05-29T05:13:31.488Z,72.89
2019-05-29T05:16:02.198Z,72.62
2019-05-29T05:18:31.670Z,72.07
2019-05-29T05:21:00.303Z,71.58
2019-05-29T05:23:29.960Z,71.41
2019-05-29T05:25:58.469Z,71.60
2019-05-29T05:28:26.972Z,71.37
2019-05-29T05:30:55.458Z,71.52
2019-05-29T05:33:23.892Z,70.98
2019-05-29T05:35:53.828Z,71.12
2019-05-29T05:38:22.487Z,71.09
2019-05-29T05:40:51.078Z,70.62
2019-05-29T05:43:24.059Z,70.42
2019-05-29T05:45:49.676Z,70.29
2019-05-29T05:48:18.317Z,70.03
2019-05-29T05:50:46.717Z,70.62
2019-05-29T05:53:15.133Z,71.01
2019-05-29T05:55:43.554Z,69.44
2019-05-29T05:58:13.228Z,69.41
2019-05-29T06:00:43.117Z,69.54
2019-05-29T06:03:11.545Z,69.07
2019-05-29T06:05:40.281Z,68.74
2019-05-29T06:08:09.122Z,68.83
2019-05-29T06:10:38.179Z,67.92
2019-05-29T06:13:06.908Z,67.49
2019-05-29T06:15:36.416Z,67.32
2019-05-29T06:18:19.891Z,67.44
2019-05-29T06:20:35.065Z,67.71
2019-05-29T06:23:04.591Z,68.53
2019-05-29T06:25:33.865Z,67.65
2019-05-29T06:28:06.261Z,67.35
2019-05-29T06:30:36.550Z,67.06
2019-05-29T06:33:04.781Z,67.01
2019-05-29T06:35:35.868Z,66.65
2019-05-29T06:38:04.832Z,67.15
2019-05-29T06:40:42.180Z,66.78
2019-05-29T06:43:22.643Z,66.19
2019-05-29T06:45:51.177Z,66.06
2019-05-29T06:48:42.984Z,65.58
2019-05-29T06:50:58.292Z,65.40
2019-05-29T06:53:26.806Z,65.50
2019-05-29T06:55:56.847Z,65.39
2019-05-29T06:58:25.597Z,64.79
2019-05-29T07:00:54.013Z,64.66
2019-05-29T07:03:22.435Z,64.40
2019-05-29T07:05:53.083Z,64.23
2019-05-29T07:08:37.496Z,64.49
2019-05-29T07:10:53.639Z,65.09
2019-05-29T07:13:23.618Z,64.86
2019-05-29T07:15:52.027Z,63.96
2019-05-29T07:18:20.525Z,63.70
2019-05-29T07:20:48.943Z,63.01
2019-05-29T07:23:17.348Z,63.33
2019-05-29T07:25:46.131Z,63.49
2019-05-29T07:28:15.830Z,62.92
2019-05-29T07:30:57.276Z,61.64
2019-05-29T07:33:14.640Z,60.90
2019-05-29T07:35:43.609Z,61.70
2019-05-29T07:38:12.219Z,61.23
2019-05-29T07:40:42.661Z,59.96
2019-05-29T07:43:12.428Z,59.65
2019-05-29T07:45:42.125Z,59.61
2019-05-29T07:48:10.890Z,59.03
2019-05-29T07:50:40.101Z,60.11
2019-05-29T07:53:08.545Z,58.41
2019-05-29T07:55:38.316Z,57.33
2019-05-29T07:58:08.517Z,56.97
2019-05-29T08:00:59.884Z,56.86
2019-05-29T08:03:07.271Z,56.34
2019-05-29T08:05:35.671Z,57.22
2019-05-29T08:08:04.839Z,57.06
2019-05-29T08:10:33.237Z,56.78
2019-05-29T08:13:01.642Z,57.26
2019-05-29T08:15:30.060Z,58.07
2019-05-29T08:17:58.536Z,59.32
2019-05-29T08:20:27.002Z,59.28
2019-05-29T08:22:56.786Z,59.43
2019-05-29T08:25:25.480Z,59.04
2019-05-29T08:27:53.957Z,60.32
2019-05-29T08:30:22.523Z,59.07
2019-05-29T08:32:51.337Z,58.80
2019-05-29T08:35:23.484Z,58.91
2019-05-29T08:37:54.076Z,57.43
2019-05-29T08:40:22.658Z,57.53
2019-05-29T08:42:51.497Z,56.85
2019-05-29T08:45:20.293Z,56.98
2019-05-29T08:47:49.747Z,54.17
2019-05-29T08:50:20.858Z,53.95
2019-05-29T08:52:50.109Z,53.64
2019-05-29T08:55:20.468Z,54.10
2019-05-29T08:57:48.854Z,52.89
2019-05-29T09:00:19.631Z,54.11
2019-05-29T09:02:49.182Z,51.67
2019-05-29T09:05:18.029Z,53.13
2019-05-29T09:07:47.948Z,51.13
2019-05-29T09:10:18.331Z,52.27
2019-05-29T09:13:06.350Z,49.32
2019-05-29T09:15:34.919Z,48.66
2019-05-29T09:18:03.654Z,50.35
2019-05-29T09:23:02.200Z,50.00
2019-05-29T09:25:30.806Z,51.04
2019-05-29T09:27:59.300Z,48.66
2019-05-29T09:30:27.778Z,49.08
2019-05-29T09:32:56.230Z,48.40
2019-05-29T09:35:25.071Z,47.21
2019-05-29T09:37:53.530Z,47.54
2019-05-29T09:40:23.098Z,48.48
2019-05-29T09:42:51.598Z,47.59
2019-05-29T09:45:21.549Z,47.83
2019-05-29T09:47:51.552Z,46.65
2019-05-29T09:50:22.735Z,46.02
2019-05-29T09:52:50.312Z,45.94
2019-05-29T09:55:19.049Z,46.38
2019-05-29T09:57:47.519Z,47.37
2019-05-29T10:00:17.951Z,45.17
2019-05-29T10:02:46.378Z,45.54
2019-05-29T10:05:14.920Z,45.08
2019-05-29T10:07:43.339Z,46.38
2019-05-29T10:10:13.176Z,45.66
2019-05-29T10:12:41.649Z,44.31
2019-05-29T10:15:12.284Z,46.60
2019-05-29T10:17:42.177Z,46.36
2019-05-29T10:20:13.366Z,43.58
2019-05-29T10:22:43.318Z,44.66
2019-05-29T10:25:13.674Z,43.07
2019-05-29T10:27:43.299Z,43.59
2019-05-29T10:30:14.645Z,44.38
2019-05-29T10:32:44.392Z,42.72
2019-05-29T10:35:13.098Z,42.95
2019-05-29T10:37:42.797Z,44.76
2019-05-29T10:40:13.119Z,44.44
2019-05-29T10:42:42.940Z,43.64
2019-05-29T10:45:12.428Z,42.08
2019-05-29T10:47:40.846Z,42.55
2019-05-29T10:50:10.694Z,41.72
2019-05-29T10:52:39.167Z,41.73
2019-05-29T10:55:08.312Z,43.55
2019-05-29T10:57:36.795Z,41.73
2019-05-29T11:00:07.563Z,40.33
2019-05-29T11:02:35.974Z,41.58
2019-05-29T11:05:06.708Z,43.92
2019-05-29T11:07:37.838Z,39.96
2019-05-29T11:10:08.435Z,40.05
2019-05-29T11:12:39.274Z,39.49
2019-05-29T11:15:20.887Z,38.60
2019-05-29T11:17:39.553Z,38.50
2019-05-29T11:20:09.600Z,37.60
2019-05-29T11:22:38.401Z,38.80
2019-05-29T11:25:21.648Z,37.04
2019-05-29T11:27:37.825Z,36.13
2019-05-29T11:30:08.700Z,36.69
2019-05-29T11:32:37.180Z,36.09
2019-05-29T11:35:06.618Z,38.18
2019-05-29T11:37:35.087Z,37.24
2019-05-29T11:40:04.043Z,38.17
2019-05-29T11:42:33.841Z,36.06
2019-05-29T11:45:03.812Z,35.98
2019-05-29T11:47:32.457Z,35.80
2019-05-29T11:50:14.716Z,35.67
2019-05-29T11:52:42.293Z,34.57
2019-05-29T11:55:04.455Z,34.51
2019-05-29T11:57:31.521Z,35.14
2019-05-29T12:00:09.449Z,35.44
2019-05-29T12:02:31.730Z,33.89
2019-05-29T12:05:02.709Z,35.76
2019-05-29T12:07:30.314Z,36.06
2019-05-29T12:09:59.604Z,35.40
2019-05-29T12:12:28.188Z,37.12
2019-05-29T12:15:06.162Z,36.11
2019-05-29T12:17:27.152Z,36.63
2019-05-29T12:19:56.093Z,37.11
2019-05-29T12:22:24.467Z,41.49
2019-05-29T12:24:52.831Z,43.39
2019-05-29T12:27:21.244Z,44.25
2019-05-29T12:29:49.652Z,45.50
2019-05-29T12:32:18.156Z,45.70
2019-05-29T12:34:53.792Z,45.99
2019-05-29T12:37:16.816Z,47.28
2019-05-29T12:39:45.222Z,47.45
2019-05-29T12:42:13.615Z,46.36
2019-05-29T12:44:43.389Z,46.77
2019-05-29T12:47:11.797Z,47.62
2019-05-29T12:49:40.204Z,48.71
2019-05-29T12:52:09.630Z,48.36
2019-05-29T12:54:39.051Z,48.74
2019-05-29T12:57:07.545Z,47.09
2019-05-29T12:59:37.575Z,46.70
2019-05-29T13:02:06.275Z,46.04
2019-05-29T13:05:05.446Z,46.32
2019-05-29T13:07:05.039Z,45.44
2019-05-29T13:09:39.570Z,45.44
2019-05-29T13:12:08.033Z,44.78
2019-05-29T13:14:36.432Z,45.51
2019-05-29T13:17:05.272Z,44.82
2019-05-29T13:19:33.975Z,45.20
2019-05-29T13:22:03.599Z,45.70
2019-05-29T13:24:32.010Z,47.80
2019-05-29T13:27:01.758Z,44.53
2019-05-29T13:29:30.219Z,45.20
2019-05-29T13:32:02.055Z,43.79
2019-05-29T13:34:30.264Z,45.18
2019-05-29T13:37:00.821Z,45.83
2019-05-29T13:39:30.125Z,46.40
2019-05-29T13:42:03.714Z,43.83
2019-05-29T13:44:30.272Z,43.66
2019-05-29T13:47:00.226Z,44.24
2019-05-29T13:49:28.912Z,45.74
2019-05-29T13:51:59.170Z,44.79
2019-05-29T13:54:27.562Z,43.58
2019-05-29T13:56:56.049Z,42.62
2019-05-29T13:59:24.507Z,41.87
2019-05-29T14:01:53.137Z,43.23
2019-05-29T14:04:21.537Z,43.55
2019-05-29T14:06:52.944Z,41.96
2019-05-29T14:09:20.151Z,42.16
2019-05-29T14:11:48.528Z,42.30
2019-05-29T14:14:16.960Z,42.24
2019-05-29T14:16:45.346Z,42.84
2019-05-29T14:19:13.959Z,42.91
2019-05-29T14:21:42.447Z,42.77
2019-05-29T14:24:26.128Z,41.88
2019-05-29T14:26:41.827Z,42.22
2019-05-29T14:29:12.461Z,40.91
2019-05-29T14:31:42.623Z,39.87
2019-05-29T14:34:11.016Z,38.73
2019-05-29T14:36:39.416Z,39.44
2019-05-29T14:39:09.755Z,38.38
2019-05-29T14:41:38.357Z,38.98
2019-05-29T14:44:07.938Z,41.81
2019-05-29T14:46:36.345Z,41.95
2019-05-29T14:49:06.442Z,40.53
2019-05-29T14:51:34.892Z,39.49
2019-05-29T14:54:04.773Z,41.18
2019-05-29T14:56:33.512Z,39.59
2019-05-29T14:59:03.215Z,39.72
2019-05-29T15:01:32.040Z,39.80
2019-05-29T15:04:00.594Z,39.64
2019-05-29T15:06:28.997Z,39.55
2019-05-29T15:09:00.142Z,39.43
2019-05-29T15:11:28.537Z,42.93
2019-05-29T15:13:56.977Z,40.91
2019-05-29T15:16:25.432Z,40.94
2019-05-29T15:18:53.865Z,41.73
2019-05-29T15:21:22.266Z,40.28
2019-05-29T15:23:52.228Z,40.35
2019-05-29T15:26:20.730Z,42.15
2019-05-29T15:28:49.132Z,41.34
2019-05-29T15:31:17.623Z,40.43
2019-05-29T15:33:46.028Z,40.96
2019-05-29T15:36:17.049Z,40.45
2019-05-29T15:38:45.477Z,41.47
2019-05-29T15:41:14.850Z,40.61
2019-05-29T15:43:43.647Z,41.81
2019-05-29T15:46:13.399Z,40.76
2019-05-29T15:48:41.978Z,41.69
2019-05-29T15:51:10.968Z,43.82
2019-05-29T15:53:41.095Z,41.60
2019-05-29T15:56:21.682Z,42.66
2019-05-29T15:58:39.661Z,44.38
2019-05-29T16:01:09.551Z,44.93
2019-05-29T16:03:40.922Z,44.92
2019-05-29T16:06:09.758Z,45.73
2019-05-29T16:08:39.299Z,46.36
2019-05-29T16:11:08.607Z,48.05
2019-05-29T16:13:37.419Z,49.63
2019-05-29T16:16:07.219Z,48.40
2019-05-29T16:18:36.742Z,49.24
2019-05-29T16:21:05.446Z,49.04
2019-05-29T16:23:36.041Z,49.16
2019-05-29T16:26:06.062Z,49.66
2019-05-29T16:28:38.305Z,49.57
2019-05-29T16:31:06.713Z,49.98
2019-05-29T16:33:37.187Z,49.57
2019-05-29T16:36:05.721Z,49.70
2019-05-29T16:38:34.236Z,48.65
2019-05-29T16:41:02.697Z,48.87
2019-05-29T16:43:31.130Z,48.62
2019-05-29T16:45:59.517Z,48.59
2019-05-29T16:48:28.023Z,48.35
2019-05-29T16:50:56.399Z,48.84
2019-05-29T16:53:24.914Z,48.34
2019-05-29T16:55:54.476Z,47.99
2019-05-29T16:58:24.812Z,48.57
2019-05-29T17:00:53.205Z,47.63
2019-05-29T17:03:21.743Z,47.84
2019-05-29T17:05:50.091Z,48.01
2019-05-29T17:08:18.649Z,47.73
2019-05-29T17:10:47.070Z,47.82
2019-05-29T17:13:16.608Z,48.32
2019-05-29T17:15:46.659Z,48.45
2019-05-29T17:18:16.415Z,48.37
2019-05-29T17:20:46.541Z,48.77
2019-05-29T17:23:16.716Z,49.16
2019-05-29T17:25:45.201Z,49.56
2019-05-29T17:28:14.995Z,48.83
2019-05-29T17:30:43.517Z,48.51
2019-05-29T17:33:12.254Z,48.35
2019-05-29T17:35:40.656Z,49.12
2019-05-29T17:38:10.582Z,49.79
2019-05-29T17:40:38.980Z,49.48
2019-05-29T17:43:07.434Z,49.86
2019-05-29T17:45:36.360Z,49.42
2019-05-29T17:48:05.383Z,48.46
2019-05-29T17:50:33.809Z,48.71
2019-05-29T17:53:02.188Z,48.45
2019-05-29T17:55:30.611Z,49.66
2019-05-29T17:57:59.004Z,49.67
2019-05-29T18:00:27.483Z,49.57
2019-05-29T18:02:55.891Z,50.55
2019-05-29T18:05:24.752Z,49.30
2019-05-29T18:07:53.619Z,49.52
2019-05-29T18:10:24.124Z,51.00
2019-05-29T18:12:54.018Z,51.10
2019-05-29T18:15:25.555Z,51.42
2019-05-29T18:17:56.540Z,51.91
2019-05-29T18:20:25.843Z,51.52
2019-05-29T18:22:54.789Z,52.05
2019-05-29T18:25:23.991Z,52.21
2019-05-29T18:27:52.456Z,52.98
2019-05-29T18:30:22.737Z,54.04
2019-05-29T18:32:51.129Z,53.85
2019-05-29T18:35:20.656Z,53.51
2019-05-29T18:37:49.469Z,52.80
2019-05-29T18:40:20.231Z,53.65
2019-05-29T18:42:48.746Z,54.14
2019-05-29T18:45:22.407Z,54.39
2019-05-29T18:47:49.373Z,54.74
2019-05-29T18:50:19.822Z,55.59
2019-05-29T18:52:48.414Z,55.66
2019-05-29T18:55:17.358Z,55.30
2019-05-29T18:57:45.743Z,55.89
2019-05-29T19:00:14.926Z,56.59
2019-05-29T19:02:43.409Z,56.89
2019-05-29T19:05:12.049Z,57.03
2019-05-29T19:07:41.955Z,57.42
2019-05-29T19:10:10.728Z,57.07
2019-05-29T19:12:39.109Z,57.35
2019-05-29T19:15:08.139Z,57.47
2019-05-29T19:17:36.774Z,58.05
2019-05-29T19:20:06.180Z,58.13
2019-05-29T19:22:37.159Z,58.46
2019-05-29T19:25:08.838Z,59.33
2019-05-29T19:27:41.343Z,59.36
2019-05-29T19:30:11.220Z,59.20
2019-05-29T19:32:40.070Z,59.75
2019-05-29T19:35:09.267Z,60.09
2019-05-29T19:37:38.016Z,60.23
2019-05-29T19:40:10.417Z,60.40
2019-05-29T19:42:38.946Z,60.42
2019-05-29T19:45:11.238Z,60.14
2019-05-29T19:47:41.258Z,60.62
2019-05-29T19:50:11.780Z,62.43
2019-05-29T19:52:40.719Z,62.81
2019-05-29T19:55:10.073Z,63.42
2019-05-29T19:57:54.798Z,62.00
2019-05-29T20:00:10.337Z,64.70
2019-05-29T20:02:39.541Z,62.61
2019-05-29T20:05:08.057Z,62.96
2019-05-29T20:07:37.515Z,62.57
2019-05-29T20:10:08.298Z,62.91
2019-05-29T20:12:38.249Z,64.28
2019-05-29T20:15:08.771Z,63.84
2019-05-29T20:17:38.524Z,64.21
2019-05-29T20:20:08.179Z,64.20
2019-05-29T20:22:37.009Z,65.50
2019-05-29T20:25:07.253Z,64.36
2019-05-29T20:27:36.280Z,64.92
2019-05-29T20:30:07.336Z,66.62
2019-05-29T20:32:36.832Z,67.24
2019-05-29T20:35:08.593Z,66.00
2019-05-29T20:37:38.227Z,67.42
2019-05-29T20:40:07.696Z,68.27
2019-05-29T20:42:36.365Z,67.00
2019-05-29T20:45:07.118Z,66.38
2019-05-29T20:47:35.757Z,67.18
2019-05-29T20:50:12.235Z,69.78
2019-05-29T20:52:41.422Z,69.42
2019-05-29T20:55:11.591Z,69.02
2019-05-29T20:57:40.207Z,68.16
2019-05-29T21:00:12.950Z,67.14
2019-05-29T21:02:42.522Z,67.68
2019-05-29T21:05:14.745Z,67.40
2019-05-29T21:07:43.211Z,68.78
2019-05-29T21:10:13.484Z,69.87
2019-05-29T21:12:46.154Z,69.77
2019-05-29T21:15:12.538Z,69.75
2019-05-29T21:17:43.970Z,70.58
2019-05-29T21:20:14.091Z,68.79
2019-05-29T21:22:45.082Z,68.56
2019-05-29T21:25:18.560Z,67.64
2019-05-29T21:27:49.480Z,68.19
2019-05-29T21:30:20.313Z,69.40
2019-05-29T21:32:48.703Z,68.31
2019-05-29T21:35:17.106Z,68.29
2019-05-29T21:37:46.630Z,68.55
2019-05-29T21:40:16.283Z,68.82
2019-05-29T21:42:44.907Z,70.28
2019-05-29T21:45:13.492Z,69.40
2019-05-29T21:47:43.479Z,70.58
2019-05-29T21:50:13.976Z,68.79
2019-05-29T21:52:43.856Z,69.92
2019-05-29T21:55:13.024Z,69.92
2019-05-29T21:57:45.147Z,69.87
2019-05-29T22:00:14.210Z,69.87
2019-05-29T22:02:42.656Z,72.52
2019-05-29T22:05:11.338Z,72.14
2019-05-29T22:07:40.714Z,71.22
2019-05-29T22:10:09.828Z,70.13
2019-05-29T22:12:38.226Z,69.91
2019-05-29T22:15:10.109Z,71.12
2019-05-29T22:17:38.520Z,71.29
2019-05-29T22:20:16.227Z,70.48
2019-05-29T22:22:44.609Z,71.83
2019-05-29T22:25:13.429Z,71.29
2019-05-29T22:27:41.965Z,71.35
2019-05-29T22:30:10.589Z,71.05
2019-05-29T22:32:39.018Z,71.43
2019-05-29T22:35:07.722Z,71.65
2019-05-29T22:37:36.107Z,71.38
2019-05-29T22:40:06.292Z,71.52
2019-05-29T22:42:36.860Z,72.12
2019-05-29T22:45:07.989Z,71.79
2019-05-29T22:47:36.381Z,72.93
2019-05-29T22:50:07.118Z,73.31
2019-05-29T22:52:35.853Z,73.74
2019-05-29T22:55:06.293Z,72.62
2019-05-29T22:57:34.680Z,72.86
2019-05-29T23:00:04.430Z,72.96
2019-05-29T23:02:32.832Z,74.20
2019-05-29T23:05:03.656Z,74.37
2019-05-29T23:07:32.618Z,73.95
2019-05-29T23:10:01.012Z,74.90
2019-05-29T23:12:29.416Z,74.06
2019-05-29T23:14:58.503Z,74.75
2019-05-29T23:17:26.890Z,75.79
2019-05-29T23:19:56.633Z,76.02
2019-05-29T23:22:25.354Z,76.51
2019-05-29T23:24:56.769Z,76.45
2019-05-29T23:27:25.166Z,75.74
2019-05-29T23:29:54.760Z,77.16
2019-05-29T23:32:23.788Z,76.43
2019-05-29T23:34:55.049Z,77.52
2019-05-29T23:37:24.963Z,76.06
2019-05-29T23:39:53.351Z,76.16
2019-05-29T23:42:21.751Z,75.86
2019-05-29T23:44:52.130Z,75.36
2019-05-29T23:47:20.279Z,75.80
2019-05-29T23:49:48.653Z,75.66
2019-05-29T23:52:17.054Z,75.61
2019-05-29T23:54:45.447Z,75.37
2019-05-29T23:57:13.850Z,76.74
2019-05-29T23:59:42.338Z,76.11
